createdAt,value
2024-02-17T00:00:38.808Z,95.10
2024-02-17T00:01:36.971Z,95.10
2024-02-17T00:02:36.947Z,95.10
2024-02-17T00:03:37.008Z,95.00
2024-02-17T00:04:36.904Z,95.00
2024-02-17T00:05:36.902Z,95.00
2024-02-17T00:06:36.930Z,94.90
2024-02-17T00:07:36.846Z,94.90
2024-02-17T00:08:36.872Z,94.80
2024-02-17T00:09:36.879Z,94.80
2024-02-17T00:10:36.858Z,94.80
2024-02-17T00:11:36.825Z,94.80
2024-02-17T00:12:36.847Z,94.80
2024-02-17T00:13:36.799Z,94.80
2024-02-17T00:14:37.200Z,94.80
2024-02-17T00:15:36.781Z,94.80
2024-02-17T00:16:37.156Z,94.70
2024-02-17T00:17:36.835Z,94.70
2024-02-17T00:18:36.932Z,94.70
2024-02-17T00:19:37.018Z,94.59
2024-02-17T00:20:36.775Z,94.59
2024-02-17T00:21:36.753Z,94.49
2024-02-17T00:22:36.674Z,94.49
2024-02-17T00:23:36.695Z,94.59
2024-02-17T00:24:36.774Z,94.59
2024-02-17T00:25:36.672Z,94.59
2024-02-17T00:26:36.629Z,94.59
2024-02-17T00:27:36.700Z,94.70
2024-02-17T00:28:36.613Z,94.70
2024-02-17T00:29:36.604Z,94.70
2024-02-17T00:30:36.624Z,94.70
2024-02-17T00:31:36.596Z,94.80
2024-02-17T00:32:36.608Z,94.80
2024-02-17T00:33:37.009Z,94.90
2024-02-17T00:34:36.587Z,94.90
2024-02-17T00:35:36.543Z,95.00
2024-02-17T00:36:36.602Z,95.00
2024-02-17T00:37:36.514Z,95.00
2024-02-17T00:38:36.655Z,95.00
2024-02-17T00:39:36.519Z,95.00
2024-02-17T00:40:36.491Z,95.00
2024-02-17T00:41:36.473Z,95.15
2024-02-17T00:42:36.537Z,95.15
2024-02-17T00:43:36.464Z,95.15
2024-02-17T00:44:36.447Z,95.25
2024-02-17T00:45:36.614Z,95.36
2024-02-17T00:46:36.457Z,95.46
2024-02-17T00:47:36.447Z,95.56
2024-02-17T00:48:37.530Z,95.56
2024-02-17T00:49:36.481Z,95.66
2024-02-17T00:50:36.378Z,95.66
2024-02-17T00:51:36.420Z,95.76
2024-02-17T00:52:36.430Z,95.76
2024-02-17T00:53:36.340Z,95.87
2024-02-17T00:54:36.354Z,95.87
2024-02-17T00:55:36.318Z,95.97
2024-02-17T00:56:36.323Z,95.97
2024-02-17T00:57:36.340Z,95.97
2024-02-17T00:58:36.309Z,96.01
2024-02-17T00:59:36.289Z,96.07
2024-02-17T01:00:36.703Z,96.07
2024-02-17T01:01:39.781Z,96.07
2024-02-17T01:02:36.235Z,96.17
2024-02-17T01:03:36.343Z,96.17
2024-02-17T01:04:36.216Z,96.17
2024-02-17T01:05:36.346Z,96.17
2024-02-17T01:06:36.446Z,96.17
2024-02-17T01:07:36.204Z,96.28
2024-02-17T01:08:36.175Z,96.28
2024-02-17T01:09:36.250Z,96.28
2024-02-17T01:10:37.355Z,96.28
2024-02-17T01:11:36.268Z,96.28
2024-02-17T01:12:36.157Z,96.28
2024-02-17T01:13:36.125Z,96.28
2024-02-17T01:14:36.116Z,96.17
2024-02-17T01:15:36.184Z,96.17
2024-02-17T01:16:36.118Z,96.07
2024-02-17T01:17:36.133Z,96.07
2024-02-17T01:18:37.173Z,96.07
2024-02-17T01:19:36.126Z,95.97
2024-02-17T01:20:36.065Z,95.97
2024-02-17T01:21:36.162Z,95.97
2024-02-17T01:22:36.042Z,95.87
2024-02-17T01:23:36.029Z,95.87
2024-02-17T01:24:36.047Z,95.87
2024-02-17T01:25:36.005Z,95.87
2024-02-17T01:26:36.027Z,95.76
2024-02-17T01:27:35.998Z,95.76
2024-02-17T01:28:36.919Z,95.76
2024-02-17T01:29:35.984Z,95.66
2024-02-17T01:30:35.986Z,95.56
2024-02-17T01:31:35.945Z,95.46
2024-02-17T01:32:35.952Z,95.41
2024-02-17T01:33:36.049Z,95.31
2024-02-17T01:34:35.981Z,95.31
2024-02-17T01:35:35.928Z,95.21
2024-02-17T01:36:35.905Z,95.21
2024-02-17T01:37:35.921Z,95.21
2024-02-17T01:38:36.817Z,95.10
2024-02-17T01:39:35.889Z,95.10
2024-02-17T01:40:35.843Z,95.00
2024-02-17T01:41:35.828Z,94.90
2024-02-17T01:42:35.800Z,94.80
2024-02-17T01:43:35.795Z,94.80
2024-02-17T01:44:35.777Z,94.70
2024-02-17T01:45:35.888Z,94.59
2024-02-17T01:46:35.775Z,94.59
2024-02-17T01:47:35.829Z,94.39
2024-02-17T01:48:35.857Z,94.29
2024-02-17T01:49:35.810Z,94.18
2024-02-17T01:50:35.723Z,94.18
2024-02-17T01:51:35.788Z,94.08
2024-02-17T01:52:39.256Z,94.08
2024-02-17T01:53:35.689Z,94.08
2024-02-17T01:54:35.705Z,94.08
2024-02-17T01:55:35.667Z,94.08
2024-02-17T01:56:35.762Z,94.08
2024-02-17T01:57:35.707Z,94.08
2024-02-17T01:58:35.680Z,94.08
2024-02-17T01:59:35.623Z,94.08
2024-02-17T02:00:35.939Z,94.08
2024-02-17T02:01:35.630Z,94.08
2024-02-17T02:02:35.587Z,94.08
2024-02-17T02:03:35.648Z,94.08
2024-02-17T02:04:35.696Z,94.08
2024-02-17T02:05:36.039Z,94.08
2024-02-17T02:06:35.634Z,94.08
2024-02-17T02:07:35.537Z,94.08
2024-02-17T02:08:35.508Z,94.08
2024-02-17T02:09:35.565Z,94.08
2024-02-17T02:10:35.536Z,94.08
2024-02-17T02:11:35.543Z,94.08
2024-02-17T02:12:35.589Z,94.08
2024-02-17T02:13:35.587Z,94.18
2024-02-17T02:14:35.465Z,94.18
2024-02-17T02:15:41.259Z,94.29
2024-02-17T02:16:36.517Z,94.29
2024-02-17T02:17:35.437Z,94.18
2024-02-17T02:18:35.623Z,94.18
2024-02-17T02:19:35.444Z,94.18
2024-02-17T02:20:35.544Z,94.29
2024-02-17T02:21:36.003Z,94.29
2024-02-17T02:22:35.358Z,94.29
2024-02-17T02:23:35.355Z,94.29
2024-02-17T02:24:35.409Z,94.33
2024-02-17T02:25:36.011Z,94.43
2024-02-17T02:26:35.321Z,94.43
2024-02-17T02:27:35.319Z,94.54
2024-02-17T02:28:35.355Z,94.54
2024-02-17T02:29:35.289Z,94.54
2024-02-17T02:30:35.401Z,94.64
2024-02-17T02:31:35.255Z,94.64
2024-02-17T02:32:35.314Z,94.74
2024-02-17T02:33:35.350Z,94.74
2024-02-17T02:34:35.890Z,94.74
2024-02-17T02:35:35.224Z,94.84
2024-02-17T02:36:35.313Z,94.95
2024-02-17T02:37:35.196Z,94.95
2024-02-17T02:38:35.188Z,95.05
2024-02-17T02:39:35.528Z,95.05
2024-02-17T02:40:36.148Z,95.15
2024-02-17T02:41:35.149Z,95.15
2024-02-17T02:42:35.217Z,95.25
2024-02-17T02:43:35.158Z,95.25
2024-02-17T02:44:35.152Z,95.25
2024-02-17T02:45:35.295Z,95.25
2024-02-17T02:46:35.094Z,95.36
2024-02-17T02:47:35.143Z,95.36
2024-02-17T02:48:35.172Z,95.36
2024-02-17T02:49:35.163Z,95.36
2024-02-17T02:50:35.082Z,95.46
2024-02-17T02:51:35.147Z,95.46
2024-02-17T02:52:35.028Z,95.46
2024-02-17T02:53:35.014Z,95.56
2024-02-17T02:54:35.271Z,95.56
2024-02-17T02:55:35.023Z,95.56
2024-02-17T02:56:34.996Z,95.66
2024-02-17T02:57:35.686Z,95.66
2024-02-17T02:58:34.996Z,95.76
2024-02-17T02:59:34.981Z,95.76
2024-02-17T03:00:35.204Z,95.76
2024-02-17T03:01:35.038Z,95.87
2024-02-17T03:02:34.932Z,95.87
2024-02-17T03:03:34.975Z,95.87
2024-02-17T03:04:35.020Z,95.97
2024-02-17T03:05:34.948Z,95.97
2024-02-17T03:06:34.999Z,95.97
2024-02-17T03:07:34.930Z,95.97
2024-02-17T03:08:34.879Z,95.97
2024-02-17T03:09:34.878Z,95.97
2024-02-17T03:10:34.907Z,95.97
2024-02-17T03:11:34.930Z,96.07
2024-02-17T03:12:34.870Z,96.07
2024-02-17T03:13:34.932Z,96.07
2024-02-17T03:14:34.856Z,96.17
2024-02-17T03:15:34.856Z,96.17
2024-02-17T03:16:34.797Z,96.17
2024-02-17T03:17:34.777Z,96.28
2024-02-17T03:18:34.819Z,96.28
2024-02-17T03:19:34.807Z,96.28
2024-02-17T03:20:34.758Z,96.28
2024-02-17T03:21:37.428Z,96.38
2024-02-17T03:22:34.715Z,96.38
2024-02-17T03:23:34.684Z,96.38
2024-02-17T03:24:35.156Z,96.38
2024-02-17T03:25:34.682Z,96.38
2024-02-17T03:26:34.684Z,96.38
2024-02-17T03:27:36.272Z,96.48
2024-02-17T03:28:34.868Z,96.48
2024-02-17T03:29:36.168Z,96.48
2024-02-17T03:30:34.722Z,96.48
2024-02-17T03:31:35.373Z,96.58
2024-02-17T03:32:34.669Z,96.58
2024-02-17T03:33:36.649Z,96.58
2024-02-17T03:34:34.853Z,96.69
2024-02-17T03:35:35.323Z,96.69
2024-02-17T03:36:34.743Z,96.69
2024-02-17T03:37:34.564Z,96.69
2024-02-17T03:38:34.537Z,96.69
2024-02-17T03:39:34.712Z,96.79
2024-02-17T03:40:36.497Z,96.79
2024-02-17T03:41:35.817Z,96.79
2024-02-17T03:42:35.983Z,96.79
2024-02-17T03:43:34.552Z,96.79
2024-02-17T03:44:35.155Z,96.89
2024-02-17T03:45:35.475Z,96.89
2024-02-17T03:46:34.495Z,96.89
2024-02-17T03:47:34.465Z,96.89
2024-02-17T03:48:34.597Z,96.89
2024-02-17T03:49:34.647Z,96.89
2024-02-17T03:50:34.403Z,96.89
2024-02-17T03:51:34.465Z,96.89
2024-02-17T03:52:34.428Z,96.89
2024-02-17T03:53:34.365Z,96.99
2024-02-17T03:54:34.479Z,96.99
2024-02-17T03:55:34.362Z,96.99
2024-02-17T03:56:34.368Z,96.89
2024-02-17T03:57:34.392Z,96.89
2024-02-17T03:58:34.325Z,96.89
2024-02-17T03:59:34.377Z,96.89
2024-02-17T04:00:34.335Z,96.89
2024-02-17T04:01:34.644Z,96.89
2024-02-17T04:02:34.313Z,96.89
2024-02-17T04:03:34.287Z,96.89
2024-02-17T04:04:34.286Z,96.89
2024-02-17T04:05:34.453Z,96.99
2024-02-17T04:06:34.409Z,96.99
2024-02-17T04:07:34.467Z,96.99
2024-02-17T04:08:34.204Z,96.99
2024-02-17T04:09:34.339Z,96.99
2024-02-17T04:10:34.592Z,96.99
2024-02-17T04:11:34.204Z,96.99
2024-02-17T04:12:34.213Z,96.99
2024-02-17T04:13:34.196Z,96.99
2024-02-17T04:14:34.153Z,96.99
2024-02-17T04:15:34.140Z,96.99
2024-02-17T04:16:34.194Z,96.99
2024-02-17T04:17:34.116Z,97.09
2024-02-17T04:18:34.225Z,97.09
2024-02-17T04:19:34.243Z,97.09
2024-02-17T04:20:34.254Z,97.09
2024-02-17T04:21:34.429Z,97.09
2024-02-17T04:22:35.118Z,97.09
2024-02-17T04:23:34.293Z,97.09
2024-02-17T04:24:34.134Z,97.09
2024-02-17T04:25:34.938Z,97.09
2024-02-17T04:26:34.021Z,97.09
2024-02-17T04:27:34.163Z,97.09
2024-02-17T04:28:34.406Z,97.09
2024-02-17T04:29:33.966Z,97.09
2024-02-17T04:30:35.495Z,97.09
2024-02-17T04:31:33.955Z,97.09
2024-02-17T04:32:35.466Z,97.09
2024-02-17T04:33:34.107Z,97.09
2024-02-17T04:34:34.015Z,97.09
2024-02-17T04:35:34.230Z,97.09
2024-02-17T04:36:33.955Z,97.09
2024-02-17T04:37:33.910Z,97.09
2024-02-17T04:38:36.344Z,97.09
2024-02-17T04:39:33.908Z,97.09
2024-02-17T04:40:33.866Z,97.09
2024-02-17T04:41:33.849Z,97.09
2024-02-17T04:42:34.482Z,97.09
2024-02-17T04:43:33.857Z,97.09
2024-02-17T04:44:33.999Z,97.09
2024-02-17T04:45:33.835Z,96.99
2024-02-17T04:46:34.057Z,96.99
2024-02-17T04:47:33.807Z,96.99
2024-02-17T04:48:33.789Z,96.99
2024-02-17T04:49:33.795Z,96.99
2024-02-17T04:50:33.821Z,96.99
2024-02-17T04:51:35.776Z,96.99
2024-02-17T04:52:33.755Z,96.99
2024-02-17T04:53:33.728Z,96.99
2024-02-17T04:54:33.859Z,96.99
2024-02-17T04:55:35.261Z,96.99
2024-02-17T04:56:33.709Z,96.99
2024-02-17T04:57:33.787Z,96.99
2024-02-17T04:58:33.654Z,97.09
2024-02-17T04:59:33.651Z,96.99
2024-02-17T05:00:33.744Z,96.99
2024-02-17T05:01:33.745Z,96.99
2024-02-17T05:02:33.625Z,96.99
2024-02-17T05:03:33.787Z,96.99
2024-02-17T05:04:33.752Z,96.99
2024-02-17T05:05:33.648Z,96.99
2024-02-17T05:06:33.810Z,97.09
2024-02-17T05:07:33.548Z,97.09
2024-02-17T05:08:33.541Z,97.09
2024-02-17T05:09:33.602Z,97.09
2024-02-17T05:10:33.538Z,97.09
2024-02-17T05:11:33.550Z,97.09
2024-02-17T05:12:33.621Z,97.20
2024-02-17T05:13:33.611Z,97.20
2024-02-17T05:14:33.542Z,97.20
2024-02-17T05:15:33.503Z,97.20
2024-02-17T05:16:33.508Z,97.20
2024-02-17T05:17:33.491Z,97.20
2024-02-17T05:18:33.626Z,97.20
2024-02-17T05:19:33.485Z,97.20
2024-02-17T05:20:33.444Z,97.20
2024-02-17T05:21:33.422Z,97.20
2024-02-17T05:22:33.449Z,97.20
2024-02-17T05:23:33.385Z,97.20
2024-02-17T05:24:33.563Z,97.30
2024-02-17T05:25:33.384Z,97.30
2024-02-17T05:26:34.328Z,97.30
2024-02-17T05:27:33.443Z,97.30
2024-02-17T05:28:33.373Z,97.34
2024-02-17T05:29:33.380Z,97.34
2024-02-17T05:30:33.435Z,97.34
2024-02-17T05:31:33.285Z,97.34
2024-02-17T05:32:33.286Z,97.34
2024-02-17T05:33:33.387Z,97.45
2024-02-17T05:34:33.346Z,97.45
2024-02-17T05:35:33.280Z,97.45
2024-02-17T05:36:33.550Z,97.45
2024-02-17T05:37:33.235Z,97.45
2024-02-17T05:38:33.213Z,97.45
2024-02-17T05:39:34.697Z,97.45
2024-02-17T05:40:33.204Z,97.45
2024-02-17T05:41:33.179Z,97.40
2024-02-17T05:42:33.251Z,97.55
2024-02-17T05:43:33.468Z,97.45
2024-02-17T05:44:33.240Z,97.45
2024-02-17T05:45:33.246Z,97.45
2024-02-17T05:46:33.130Z,97.45
2024-02-17T05:47:33.192Z,97.45
2024-02-17T05:48:33.285Z,97.45
2024-02-17T05:49:33.169Z,97.45
2024-02-17T05:50:33.092Z,97.45
2024-02-17T05:51:33.158Z,97.45
2024-02-17T05:52:33.070Z,97.45
2024-02-17T05:53:33.065Z,97.45
2024-02-17T05:54:33.105Z,97.45
2024-02-17T05:55:33.039Z,97.45
2024-02-17T05:56:33.024Z,97.45
2024-02-17T05:57:33.076Z,97.45
2024-02-17T05:58:33.057Z,97.40
2024-02-17T05:59:32.993Z,97.40
2024-02-17T06:00:33.192Z,97.40
2024-02-17T06:01:33.567Z,97.40
2024-02-17T06:02:33.466Z,97.40
2024-02-17T06:03:33.070Z,97.40
2024-02-17T06:04:32.975Z,97.40
2024-02-17T06:05:32.930Z,97.40
2024-02-17T06:06:33.544Z,97.30
2024-02-17T06:07:33.023Z,97.40
2024-02-17T06:08:34.856Z,97.40
2024-02-17T06:09:32.914Z,97.50
2024-02-17T06:10:33.231Z,97.50
2024-02-17T06:11:33.080Z,97.61
2024-02-17T06:12:32.908Z,97.61
2024-02-17T06:13:32.872Z,97.61
2024-02-17T06:14:32.829Z,97.50
2024-02-17T06:15:32.963Z,97.40
2024-02-17T06:16:32.804Z,97.30
2024-02-17T06:17:32.840Z,97.20
2024-02-17T06:18:33.001Z,97.20
2024-02-17T06:19:35.627Z,97.20
2024-02-17T06:20:32.757Z,97.20
2024-02-17T06:21:32.830Z,97.09
2024-02-17T06:22:33.732Z,97.09
2024-02-17T06:23:32.726Z,97.09
2024-02-17T06:24:32.756Z,97.20
2024-02-17T06:25:32.712Z,97.20
2024-02-17T06:26:32.825Z,97.20
2024-02-17T06:27:32.729Z,97.20
2024-02-17T06:28:32.685Z,97.20
2024-02-17T06:29:32.689Z,97.24
2024-02-17T06:30:32.904Z,97.24
2024-02-17T06:31:34.863Z,97.20
2024-02-17T06:32:32.689Z,97.20
2024-02-17T06:33:33.054Z,97.30
2024-02-17T06:34:33.017Z,97.20
2024-02-17T06:35:32.600Z,97.30
2024-02-17T06:36:32.776Z,97.30
2024-02-17T06:37:32.580Z,97.30
2024-02-17T06:38:32.572Z,97.30
2024-02-17T06:39:32.589Z,97.30
2024-02-17T06:40:32.692Z,97.30
2024-02-17T06:41:32.553Z,97.30
2024-02-17T06:42:32.534Z,97.30
2024-02-17T06:43:32.528Z,97.30
2024-02-17T06:44:32.523Z,97.30
2024-02-17T06:45:32.548Z,97.30
2024-02-17T06:46:32.531Z,97.30
2024-02-17T06:47:32.495Z,97.30
2024-02-17T06:48:32.540Z,97.30
2024-02-17T06:49:32.511Z,97.30
2024-02-17T06:50:32.505Z,97.30
2024-02-17T06:51:32.500Z,97.34
2024-02-17T06:52:33.310Z,97.34
2024-02-17T06:53:32.409Z,97.34
2024-02-17T06:54:32.462Z,97.34
2024-02-17T06:55:32.366Z,97.34
2024-02-17T06:56:32.374Z,97.34
2024-02-17T06:57:33.381Z,97.34
2024-02-17T06:58:32.341Z,97.34
2024-02-17T06:59:32.373Z,97.34
2024-02-17T07:00:32.385Z,97.45
2024-02-17T07:01:33.358Z,97.45
2024-02-17T07:02:32.301Z,97.45
2024-02-17T07:03:32.469Z,97.45
2024-02-17T07:04:32.303Z,97.45
2024-02-17T07:05:32.350Z,97.45
2024-02-17T07:06:32.502Z,97.45
2024-02-17T07:07:32.250Z,97.45
2024-02-17T07:08:32.249Z,97.40
2024-02-17T07:09:32.250Z,97.40
2024-02-17T07:10:32.264Z,97.40
2024-02-17T07:11:32.288Z,97.40
2024-02-17T07:12:32.223Z,97.40
2024-02-17T07:13:32.184Z,97.40
2024-02-17T07:14:33.533Z,97.40
2024-02-17T07:15:32.193Z,97.40
2024-02-17T07:16:32.178Z,97.40
2024-02-17T07:17:32.166Z,97.40
2024-02-17T07:18:32.302Z,97.30
2024-02-17T07:19:32.149Z,97.30
2024-02-17T07:20:33.100Z,97.30
2024-02-17T07:21:32.102Z,97.30
2024-02-17T07:22:32.081Z,97.30
2024-02-17T07:23:33.241Z,97.30
2024-02-17T07:24:32.162Z,97.30
2024-02-17T07:25:32.077Z,97.30
2024-02-17T07:26:32.053Z,97.30
2024-02-17T07:27:32.076Z,97.30
2024-02-17T07:28:33.758Z,97.30
2024-02-17T07:29:32.102Z,97.30
2024-02-17T07:30:32.073Z,97.30
2024-02-17T07:31:31.980Z,97.30
2024-02-17T07:32:32.173Z,97.30
2024-02-17T07:33:32.215Z,97.20
2024-02-17T07:34:32.026Z,97.20
2024-02-17T07:35:31.943Z,97.20
2024-02-17T07:36:32.004Z,97.20
2024-02-17T07:37:31.930Z,97.20
2024-02-17T07:38:31.910Z,97.20
2024-02-17T07:39:31.950Z,97.20
2024-02-17T07:40:31.876Z,97.20
2024-02-17T07:41:31.993Z,97.20
2024-02-17T07:42:31.942Z,97.20
2024-02-17T07:43:31.865Z,97.20
2024-02-17T07:44:32.002Z,97.20
2024-02-17T07:45:32.032Z,97.20
2024-02-17T07:46:32.011Z,97.20
2024-02-17T07:47:31.835Z,97.20
2024-02-17T07:48:32.079Z,97.09
2024-02-17T07:49:33.849Z,97.09
2024-02-17T07:50:31.888Z,97.09
2024-02-17T07:51:31.773Z,97.09
2024-02-17T07:52:31.757Z,97.09
2024-02-17T07:53:31.892Z,97.09
2024-02-17T07:54:31.748Z,96.99
2024-02-17T07:55:31.927Z,96.99
2024-02-17T07:56:33.512Z,96.99
2024-02-17T07:57:31.759Z,96.99
2024-02-17T07:58:31.670Z,96.99
2024-02-17T07:59:31.714Z,96.89
2024-02-17T08:00:31.858Z,96.89
2024-02-17T08:01:31.977Z,96.89
2024-02-17T08:02:31.720Z,96.89
2024-02-17T08:03:31.659Z,96.89
2024-02-17T08:04:33.569Z,96.89
2024-02-17T08:05:31.757Z,96.89
2024-02-17T08:06:32.681Z,96.84
2024-02-17T08:07:32.764Z,96.89
2024-02-17T08:08:31.604Z,96.89
2024-02-17T08:09:31.597Z,96.79
2024-02-17T08:10:32.777Z,96.79
2024-02-17T08:11:31.628Z,96.79
2024-02-17T08:12:31.542Z,96.69
2024-02-17T08:13:32.051Z,96.69
2024-02-17T08:14:41.730Z,96.69
2024-02-17T08:15:31.537Z,96.58
2024-02-17T08:16:31.495Z,96.58
2024-02-17T08:17:32.342Z,96.58
2024-02-17T08:18:31.603Z,96.58
2024-02-17T08:19:31.618Z,96.58
2024-02-17T08:20:31.520Z,96.58
2024-02-17T08:21:33.216Z,96.58
2024-02-17T08:22:33.242Z,96.58
2024-02-17T08:23:33.247Z,96.58
2024-02-17T08:24:33.407Z,96.58
2024-02-17T08:25:31.488Z,96.58
2024-02-17T08:26:32.342Z,96.58
2024-02-17T08:27:31.444Z,96.58
2024-02-17T08:28:32.486Z,96.58
2024-02-17T08:29:31.373Z,96.69
2024-02-17T08:30:31.472Z,96.69
2024-02-17T08:31:32.164Z,96.69
2024-02-17T08:32:31.447Z,96.64
2024-02-17T08:33:31.503Z,96.64
2024-02-17T08:34:32.297Z,96.64
2024-02-17T08:35:31.324Z,96.64
2024-02-17T08:36:31.313Z,96.64
2024-02-17T08:37:31.251Z,96.64
2024-02-17T08:38:31.244Z,96.64
2024-02-17T08:39:31.378Z,96.54
2024-02-17T08:40:31.332Z,96.54
2024-02-17T08:41:31.208Z,96.48
2024-02-17T08:42:31.247Z,96.48
2024-02-17T08:43:31.429Z,96.58
2024-02-17T08:44:31.230Z,96.48
2024-02-17T08:45:31.220Z,96.48
2024-02-17T08:46:31.152Z,96.58
2024-02-17T08:47:31.228Z,96.58
2024-02-17T08:48:31.366Z,96.58
2024-02-17T08:49:31.365Z,96.58
2024-02-17T08:50:31.096Z,96.58
2024-02-17T08:51:31.172Z,96.58
2024-02-17T08:52:31.086Z,96.54
2024-02-17T08:53:31.216Z,96.54
2024-02-17T08:54:31.279Z,96.54
2024-02-17T08:55:31.153Z,96.54
2024-02-17T08:56:31.049Z,96.54
2024-02-17T08:57:31.096Z,96.54
2024-02-17T08:58:31.251Z,96.54
2024-02-17T08:59:31.054Z,96.54
2024-02-17T09:00:31.109Z,96.54
2024-02-17T09:01:31.066Z,96.54
2024-02-17T09:02:30.969Z,96.44
2024-02-17T09:03:31.132Z,96.44
2024-02-17T09:04:30.949Z,96.44
2024-02-17T09:05:31.093Z,96.44
2024-02-17T09:06:31.178Z,96.44
2024-02-17T09:07:30.962Z,96.44
2024-02-17T09:08:31.336Z,96.44
2024-02-17T09:09:30.945Z,96.44
2024-02-17T09:10:30.926Z,96.33
2024-02-17T09:11:30.871Z,96.33
2024-02-17T09:12:30.867Z,96.23
2024-02-17T09:13:31.769Z,96.23
2024-02-17T09:14:30.881Z,96.23
2024-02-17T09:15:30.924Z,96.13
2024-02-17T09:16:30.842Z,96.13
2024-02-17T09:17:30.860Z,96.13
2024-02-17T09:18:30.951Z,96.13
2024-02-17T09:19:30.851Z,96.03
2024-02-17T09:20:30.859Z,96.03
2024-02-17T09:21:30.775Z,96.03
2024-02-17T09:22:30.747Z,96.03
2024-02-17T09:23:30.776Z,96.03
2024-02-17T09:24:30.776Z,96.03
2024-02-17T09:25:31.592Z,96.03
2024-02-17T09:26:30.716Z,95.92
2024-02-17T09:27:30.746Z,95.92
2024-02-17T09:28:32.400Z,95.92
2024-02-17T09:29:30.678Z,95.82
2024-02-17T09:30:30.708Z,95.82
2024-02-17T09:31:32.838Z,95.82
2024-02-17T09:32:30.637Z,95.82
2024-02-17T09:33:30.754Z,95.82
2024-02-17T09:34:30.865Z,95.82
2024-02-17T09:35:30.632Z,95.82
2024-02-17T09:36:30.628Z,95.82
2024-02-17T09:37:30.660Z,95.82
2024-02-17T09:38:30.608Z,95.72
2024-02-17T09:39:30.732Z,95.72
2024-02-17T09:40:30.765Z,95.67
2024-02-17T09:41:30.583Z,95.72
2024-02-17T09:42:31.925Z,95.67
2024-02-17T09:43:30.573Z,95.67
2024-02-17T09:44:30.531Z,95.67
2024-02-17T09:45:30.571Z,95.67
2024-02-17T09:46:30.533Z,95.67
2024-02-17T09:47:31.467Z,95.57
2024-02-17T09:48:30.855Z,95.67
2024-02-17T09:49:30.562Z,95.57
2024-02-17T09:50:30.461Z,95.57
2024-02-17T09:51:30.639Z,95.47
2024-02-17T09:52:30.445Z,95.47
2024-02-17T09:53:30.587Z,95.47
2024-02-17T09:54:30.502Z,95.47
2024-02-17T09:55:30.444Z,95.47
2024-02-17T09:56:30.402Z,95.47
2024-02-17T09:57:38.091Z,95.47
2024-02-17T09:58:31.426Z,95.37
2024-02-17T09:59:30.387Z,95.37
2024-02-17T10:00:30.420Z,95.37
2024-02-17T10:01:30.384Z,95.37
2024-02-17T10:02:30.799Z,95.26
2024-02-17T10:03:31.559Z,95.26
2024-02-17T10:04:31.059Z,95.26
2024-02-17T10:05:30.513Z,95.26
2024-02-17T10:06:30.418Z,95.26
2024-02-17T10:07:30.658Z,95.17
2024-02-17T10:08:30.291Z,95.17
2024-02-17T10:09:31.628Z,95.12
2024-02-17T10:10:30.315Z,95.02
2024-02-17T10:11:30.413Z,95.02
2024-02-17T10:12:30.722Z,95.02
2024-02-17T10:13:30.643Z,94.92
2024-02-17T10:14:31.197Z,94.81
2024-02-17T10:15:30.426Z,94.81
2024-02-17T10:16:30.338Z,94.81
2024-02-17T10:17:30.218Z,94.71
2024-02-17T10:18:30.428Z,94.65
2024-02-17T10:19:30.363Z,94.55
2024-02-17T10:20:30.244Z,94.55
2024-02-17T10:21:30.173Z,94.45
2024-02-17T10:22:30.091Z,94.45
2024-02-17T10:23:30.151Z,94.45
2024-02-17T10:24:30.586Z,94.45
2024-02-17T10:25:30.306Z,94.45
2024-02-17T10:26:30.208Z,94.45
2024-02-17T10:27:30.487Z,94.45
2024-02-17T10:28:30.605Z,94.45
2024-02-17T10:29:30.216Z,94.55
2024-02-17T10:30:30.317Z,94.55
2024-02-17T10:31:29.996Z,94.45
2024-02-17T10:32:30.082Z,94.45
2024-02-17T10:33:30.331Z,94.45
2024-02-17T10:34:30.303Z,94.55
2024-02-17T10:35:30.124Z,94.55
2024-02-17T10:36:30.124Z,94.65
2024-02-17T10:37:29.934Z,94.75
2024-02-17T10:38:29.916Z,94.96
2024-02-17T10:39:30.580Z,94.96
2024-02-17T10:40:30.263Z,95.06
2024-02-17T10:41:30.199Z,95.06
2024-02-17T10:42:29.874Z,95.06
2024-02-17T10:43:29.969Z,95.17
2024-02-17T10:44:29.968Z,95.17
2024-02-17T10:45:30.492Z,95.26
2024-02-17T10:46:30.092Z,95.26
2024-02-17T10:47:29.907Z,95.37
2024-02-17T10:48:30.051Z,95.37
2024-02-17T10:49:30.005Z,95.37
2024-02-17T10:50:29.867Z,95.37
2024-02-17T10:51:29.791Z,95.37
2024-02-17T10:52:29.771Z,95.47
2024-02-17T10:53:29.763Z,95.47
2024-02-17T10:54:29.779Z,95.37
2024-02-17T10:55:29.723Z,95.37
2024-02-17T10:56:29.739Z,95.37
2024-02-17T10:57:29.766Z,95.37
2024-02-17T10:58:29.702Z,95.37
2024-02-17T10:59:29.716Z,95.37
2024-02-17T11:00:29.917Z,95.37
2024-02-17T11:01:29.846Z,95.37
2024-02-17T11:02:29.672Z,95.37
2024-02-17T11:03:29.871Z,95.37
2024-02-17T11:04:29.680Z,95.47
2024-02-17T11:05:29.745Z,95.47
2024-02-17T11:06:29.860Z,95.47
2024-02-17T11:07:29.702Z,95.47
2024-02-17T11:08:29.677Z,95.47
2024-02-17T11:09:29.665Z,95.47
2024-02-17T11:10:29.901Z,95.47
2024-02-17T11:11:29.733Z,95.47
2024-02-17T11:12:29.907Z,95.47
2024-02-17T11:13:29.745Z,95.37
2024-02-17T11:14:29.562Z,95.37
2024-02-17T11:15:31.991Z,95.22
2024-02-17T11:16:29.505Z,95.22
2024-02-17T11:17:29.768Z,95.12
2024-02-17T11:18:29.855Z,95.12
2024-02-17T11:19:38.371Z,95.12
2024-02-17T11:20:30.708Z,95.12
2024-02-17T11:21:31.362Z,95.12
2024-02-17T11:22:29.546Z,94.92
2024-02-17T11:23:29.624Z,94.92
2024-02-17T11:24:29.643Z,94.81
2024-02-17T11:25:29.422Z,94.77
2024-02-17T11:26:36.972Z,94.67
2024-02-17T11:27:31.431Z,94.67
2024-02-17T11:28:29.388Z,94.56
2024-02-17T11:29:29.554Z,94.46
2024-02-17T11:30:29.460Z,94.46
2024-02-17T11:31:29.328Z,94.36
2024-02-17T11:32:29.323Z,94.36
2024-02-17T11:33:32.164Z,94.26
2024-02-17T11:34:30.487Z,94.15
2024-02-17T11:35:29.739Z,94.06
2024-02-17T11:36:29.493Z,94.06
2024-02-17T11:37:29.306Z,93.95
2024-02-17T11:38:29.467Z,93.89
2024-02-17T11:39:29.294Z,93.89
2024-02-17T11:40:29.265Z,93.89
2024-02-17T11:41:29.228Z,93.89
2024-02-17T11:42:29.273Z,93.89
2024-02-17T11:43:29.233Z,93.89
2024-02-17T11:44:29.379Z,93.89
2024-02-17T11:45:29.301Z,93.89
2024-02-17T11:46:29.189Z,93.99
2024-02-17T11:47:29.299Z,94.06
2024-02-17T11:48:29.482Z,93.95
2024-02-17T11:49:29.505Z,93.95
2024-02-17T11:50:29.149Z,93.95
2024-02-17T11:51:30.244Z,93.95
2024-02-17T11:52:29.249Z,93.85
2024-02-17T11:53:30.289Z,93.74
2024-02-17T11:54:30.408Z,93.74
2024-02-17T11:55:30.356Z,93.65
2024-02-17T11:56:29.393Z,93.65
2024-02-17T11:57:30.517Z,93.65
2024-02-17T11:58:30.490Z,93.65
2024-02-17T11:59:29.839Z,93.65
2024-02-17T12:00:29.061Z,93.50
2024-02-17T12:01:30.547Z,93.40
2024-02-17T12:02:29.211Z,93.40
2024-02-17T12:03:30.676Z,93.29
2024-02-17T12:04:30.728Z,93.29
2024-02-17T12:05:29.052Z,93.29
2024-02-17T12:06:30.788Z,93.19
2024-02-17T12:07:29.928Z,93.09
2024-02-17T12:08:29.311Z,92.99
2024-02-17T12:09:28.972Z,92.88
2024-02-17T12:10:28.936Z,92.88
2024-02-17T12:11:28.952Z,92.88
2024-02-17T12:12:28.905Z,92.78
2024-02-17T12:13:28.885Z,92.78
2024-02-17T12:14:28.885Z,92.78
2024-02-17T12:15:29.221Z,92.88
2024-02-17T12:16:28.878Z,92.88
2024-02-17T12:17:28.913Z,92.88
2024-02-17T12:18:28.982Z,92.88
2024-02-17T12:19:29.066Z,92.88
2024-02-17T12:20:28.782Z,92.88
2024-02-17T12:21:28.828Z,92.84
2024-02-17T12:22:28.818Z,92.84
2024-02-17T12:23:28.751Z,92.74
2024-02-17T12:24:28.997Z,92.64
2024-02-17T12:25:28.751Z,92.43
2024-02-17T12:26:41.395Z,92.33
2024-02-17T12:27:29.717Z,92.23
2024-02-17T12:28:28.752Z,92.02
2024-02-17T12:29:28.918Z,92.02
2024-02-17T12:30:29.008Z,91.92
2024-02-17T12:31:28.769Z,91.72
2024-02-17T12:32:28.945Z,91.72
2024-02-17T12:33:28.872Z,91.72
2024-02-17T12:34:28.923Z,91.82
2024-02-17T12:35:28.730Z,91.72
2024-02-17T12:36:28.728Z,91.72
2024-02-17T12:37:28.620Z,91.61
2024-02-17T12:38:28.620Z,91.72
2024-02-17T12:39:28.634Z,91.61
2024-02-17T12:40:28.826Z,91.41
2024-02-17T12:41:28.553Z,91.20
2024-02-17T12:42:28.876Z,91.20
2024-02-17T12:43:34.645Z,91.31
2024-02-17T12:44:29.584Z,91.46
2024-02-17T12:45:28.559Z,91.56
2024-02-17T12:46:28.882Z,91.66
2024-02-17T12:47:28.874Z,91.76
2024-02-17T12:48:28.570Z,91.72
2024-02-17T12:49:30.028Z,91.76
2024-02-17T12:50:29.290Z,91.86
2024-02-17T12:51:28.490Z,91.92
2024-02-17T12:52:28.459Z,91.92